Time;durP1;ratioP1;P1;durP2;ratioP2;P2;SDS_P1;SDS_P2;PMS_P1;PMS_P2;Temp;Humidity;BMP_temperature;BMP_pressure;BME280_temperature;BME280_humidity;BME280_pressure;Samples;Min_cycle;Max_cycle;Signal;HPM_P1;HPM_P2
2022/10/31 00:01:35;;;;;;;4.53;3.65;;;;;;;10.93;100.00;101919.50;1032345;28;20300;-95
2022/10/31 00:02:08;;;;;;;5.63;4.10;;;;;;;10.90;100.00;101920.69;1027873;28;20321;-95
2022/10/31 00:02:42;;;;;;;7.85;5.47;;;;;;;10.90;100.00;101923.38;1024708;29;20048;-95
2022/10/31 00:03:16;;;;;;;8.18;4.40;;;;;;;10.87;100.00;101921.09;1020999;29;20304;-94
2022/10/31 00:03:51;;;;;;;10.52;5.10;;;;;;;10.86;100.00;101918.63;1028469;29;20310;-95
2022/10/31 00:04:25;;;;;;;9.90;5.65;;;;;;;10.83;100.00;101915.31;1028562;29;20317;-94
2022/10/31 00:04:58;;;;;;;9.07;5.90;;;;;;;10.87;100.00;101914.94;1020588;29;20304;-96
2022/10/31 00:05:31;;;;;;;6.70;5.03;;;;;;;10.88;100.00;101916.59;1016348;29;20392;-95
2022/10/31 00:06:04;;;;;;;6.28;5.22;;;;;;;10.84;100.00;101914.31;1020462;29;20385;-95
2022/10/31 00:06:37;;;;;;;9.75;4.60;;;;;;;10.88;100.00;101917.41;1024544;29;20308;-95
2022/10/31 00:07:10;;;;;;;8.27;4.45;;;;;;;10.84;100.00;101908.97;1020339;29;20331;-94
2022/10/31 00:07:42;;;;;;;9.25;4.28;;;;;;;10.84;100.00;101916.13;1019756;29;20371;-94
2022/10/31 00:08:16;;;;;;;6.53;3.97;;;;;;;10.81;100.00;101917.34;1027618;29;20309;-94
2022/10/31 00:08:54;;;;;;;5.18;4.47;;;;;;;10.79;100.00;101914.06;1027531;29;20314;-94
2022/10/31 00:09:27;;;;;;;12.25;4.53;;;;;;;10.78;100.00;101912.41;1019225;29;20319;-95
2022/10/31 00:09:59;;;;;;;4.35;3.78;;;;;;;10.78;100.00;101922.25;1015114;29;20305;-94
2022/10/31 00:10:31;;;;;;;7.72;5.13;;;;;;;10.79;100.00;101921.22;1027120;29;20326;-94
2022/10/31 00:11:03;;;;;;;4.07;3.67;;;;;;;10.77;100.00;101913.44;1022892;29;20308;-94
2022/10/31 00:11:35;;;;;;;9.55;3.97;;;;;;;10.79;100.00;101914.06;1011258;29;20313;-94
2022/10/31 00:12:08;;;;;;;8.98;3.85;;;;;;;10.76;100.00;101917.09;1019749;29;20336;-94
2022/10/31 00:12:40;;;;;;;7.78;4.55;;;;;;;10.77;100.00;101916.09;1018965;29;20312;-94
2022/10/31 00:13:13;;;;;;;5.72;5.10;;;;;;;10.78;100.00;101912.41;1023090;29;20330;-95
2022/10/31 00:13:46;;;;;;;6.20;4.47;;;;;;;10.77;100.00;101913.44;1031025;28;20710;-94
2022/10/31 00:14:18;;;;;;;7.22;4.53;;;;;;;10.72;100.00;101917.69;1019580;29;20315;-94
2022/10/31 00:14:50;;;;;;;7.80;4.13;;;;;;;10.71;100.00;101911.53;1027734;28;20307;-95
2022/10/31 00:15:25;;;;;;;5.95;4.32;;;;;;;10.71;100.00;101919.53;1028385;29;20295;-94
2022/10/31 00:16:01;;;;;;;7.22;4.47;;;;;;;10.67;100.00;101915.56;1020415;29;20327;-95
2022/10/31 00:16:37;;;;;;;10.88;5.05;;;;;;;10.65;100.00;101920.25;1020824;29;20291;-95
2022/10/31 00:17:19;;;;;;;8.93;4.28;;;;;;;10.72;100.00;101923.84;1024951;29;20310;-95
2022/10/31 00:17:52;;;;;;;5.15;4.10;;;;;;;10.69;100.00;101918.88;1028842;28;20382;-96
2022/10/31 00:18:26;;;;;;;7.60;4.28;;;;;;;10.72;100.00;101918.50;1028185;28;20318;-95
2022/10/31 00:19:01;;;;;;;7.32;4.10;;;;;;;10.72;100.00;101918.50;1032536;28;20365;-96
2022/10/31 00:19:34;;;;;;;7.82;4.40;;;;;;;10.73;100.00;101914.00;1032551;28;20333;-95
2022/10/31 00:20:08;;;;;;;12.90;4.90;;;;;;;10.70;100.00;101915.22;1024528;29;20315;-95
2022/10/31 00:20:41;;;;;;;12.43;4.22;;;;;;;10.71;100.00;101916.03;1024295;28;20339;-95
2022/10/31 00:21:14;;;;;;;5.60;3.80;;;;;;;10.71;100.00;101916.84;1032051;28;20408;-95
2022/10/31 00:21:47;;;;;;;4.65;4.05;;;;;;;10.69;100.00;101918.06;1016055;29;20344;-96
2022/10/31 00:22:19;;;;;;;8.68;4.13;;;;;;;10.71;100.00;101916.03;1019606;29;20385;-96
2022/10/31 00:22:52;;;;;;;8.82;4.93;;;;;;;10.69;100.00;101923.41;1023461;29;20318;-96
2022/10/31 00:23:24;;;;;;;6.55;3.55;;;;;;;10.69;100.00;101920.72;1019485;29;20308;-95
2022/10/31 00:23:58;;;;;;;6.53;4.13;;;;;;;10.67;100.00;101918.22;1027392;29;20313;-95
2022/10/31 00:24:30;;;;;;;6.50;4.20;;;;;;;10.65;100.00;101916.78;1023320;29;20307;-95
2022/10/31 00:25:03;;;;;;;3.03;2.72;;;;;;;10.67;100.00;101920.91;1019961;29;20319;-95
2022/10/31 00:25:39;;;;;;;9.45;4.40;;;;;;;10.67;100.00;101920.06;1019664;29;20320;-96
2022/10/31 00:26:12;;;;;;;7.43;3.95;;;;;;;10.66;100.00;101923.75;1023876;29;20307;-95
2022/10/31 00:26:45;;;;;;;6.90;3.90;;;;;;;10.64;100.00;101918.63;1027921;29;20322;-95
2022/10/31 00:27:17;;;;;;;7.18;3.80;;;;;;;10.64;100.00;101923.94;1023962;29;20308;-96
2022/10/31 00:27:51;;;;;;;6.53;4.47;;;;;;;10.60;100.00;101914.69;1028499;29;20769;-95
2022/10/31 00:28:27;;;;;;;8.65;4.43;;;;;;;10.61;100.00;101911.00;1032823;28;20314;-95
2022/10/31 00:29:01;;;;;;;5.43;3.88;;;;;;;10.59;100.00;101923.69;1032794;28;20386;-96
2022/10/31 00:29:36;;;;;;;7.45;3.65;;;;;;;10.62;100.00;101923.31;1020794;29;20319;-96
2022/10/31 00:30:09;;;;;;;5.15;3.80;;;;;;;10.61;100.00;101923.50;1028007;29;20318;-95
2022/10/31 00:30:42;;;;;;;9.38;4.70;;;;;;;10.62;100.00;101917.97;1023962;29;20311;-96
2022/10/31 00:31:16;;;;;;;8.73;4.03;;;;;;;10.60;100.00;101924.50;1020863;29;20375;-95
2022/10/31 00:31:54;;;;;;;5.55;4.30;;;;;;;10.56;100.00;101924.06;1016441;29;20319;-96
2022/10/31 00:32:30;;;;;;;7.47;4.47;;;;;;;10.58;100.00;101919.38;1020694;29;20308;-96
2022/10/31 00:33:05;;;;;;;7.05;4.80;;;;;;;10.58;100.00;101926.53;1024569;29;20307;-96
2022/10/31 00:33:39;;;;;;;6.35;5.72;;;;;;;10.58;100.00;101922.03;1028929;28;20306;-96
2022/10/31 00:34:13;;;;;;;5.68;4.55;;;;;;;10.57;100.00;101925.72;1016983;29;20317;-95
2022/10/31 00:34:49;;;;;;;5.80;3.60;;;;;;;10.56;100.00;101924.06;1020896;29;20366;-95
2022/10/31 00:35:23;;;;;;;6.20;3.70;;;;;;;10.53;100.00;101924.44;1024712;29;20391;-95
2022/10/31 00:35:58;;;;;;;4.70;3.78;;;;;;;10.54;100.00;101920.78;1028756;28;20370;-95
2022/10/31 00:36:32;;;;;;;4.95;4.30;;;;;;;10.55;100.00;101926.94;1020670;29;20339;-95
2022/10/31 00:37:05;;;;;;;8.77;4.13;;;;;;;10.50;100.00;101914.19;1012573;29;20829;-95
2022/10/31 00:37:40;;;;;;;7.00;4.60;;;;;;;10.49;100.00;101925.84;1012801;29;20313;-96
2022/10/31 00:38:13;;;;;;;5.95;4.18;;;;;;;10.45;100.00;101922.75;1012924;29;20446;-95
2022/10/31 00:38:47;;;;;;;6.47;3.58;;;;;;;10.46;100.00;101923.56;1020671;29;20316;-96
2022/10/31 00:39:23;;;;;;;7.28;4.40;;;;;;;10.45;100.00;101920.09;1020414;29;20319;-96
2022/10/31 00:39:58;;;;;;;5.28;3.88;;;;;;;10.41;100.00;101915.31;1009051;29;20321;-96
2022/10/31 00:40:32;;;;;;;9.70;4.20;;;;;;;10.41;100.00;101918.81;1016911;29;20358;-96
2022/10/31 00:41:09;;;;;;;10.02;4.20;;;;;;;10.37;100.00;101924.69;1028505;28;20318;-95
2022/10/31 00:41:45;;;;;;;5.57;3.20;;;;;;;10.31;100.00;101920.94;1016596;28;20774;-95
2022/10/31 00:42:18;;;;;;;4.68;4.15;;;;;;;10.27;100.00;101926.81;1023830;29;20066;-95
2022/10/31 00:42:50;;;;;;;6.05;3.72;;;;;;;10.28;100.00;101923.97;1024224;29;20855;-95
2022/10/31 00:43:24;;;;;;;4.50;4.10;;;;;;;10.28;100.00;101925.81;1019880;29;20425;-95
2022/10/31 00:43:57;;;;;;;8.32;4.82;;;;;;;10.29;100.00;101924.81;1023604;29;20367;-96
2022/10/31 00:44:30;;;;;;;9.82;3.50;;;;;;;10.31;100.00;101925.44;1023438;29;20371;-96
2022/10/31 00:45:02;;;;;;;6.30;4.30;;;;;;;10.29;100.00;101927.47;1019224;29;20363;-95
2022/10/31 00:49:51;;;;;;;7.90;5.32;;;;;;;10.29;100.00;101914.97;1026436;28;20314;-95
2022/10/31 00:50:24;;;;;;;7.55;4.68;;;;;;;10.25;100.00;101928.84;1018841;29;20315;-96
2022/10/31 00:50:56;;;;;;;8.10;4.75;;;;;;;10.29;100.00;101924.81;1022426;29;20311;-95
2022/10/31 00:51:28;;;;;;;9.75;5.82;;;;;;;10.40;100.00;101921.63;1018616;29;20314;-95
2022/10/31 00:52:02;;;;;;;7.07;6.30;;;;;;;10.33;100.00;101921.56;1022036;29;20787;-96
2022/10/31 00:52:35;;;;;;;8.05;5.30;;;;;;;10.33;100.00;101920.75;1026844;28;20796;-96
2022/10/31 00:53:07;;;;;;;9.02;5.38;;;;;;;10.25;100.00;101926.19;1015448;29;20315;-95
2022/10/31 00:53:39;;;;;;;8.85;5.35;;;;;;;10.26;100.00;101923.34;1015479;29;20308;-95
2022/10/31 00:54:12;;;;;;;6.22;4.45;;;;;;;10.27;100.00;101921.50;1022862;29;20315;-96
2022/10/31 00:54:44;;;;;;;6.85;5.47;;;;;;;10.25;100.00;101920.88;1022867;29;20657;-95
2022/10/31 00:55:16;;;;;;;8.20;7.03;;;;;;;10.26;100.00;101927.84;1014663;29;20308;-95
2022/10/31 00:55:48;;;;;;;10.27;6.47;;;;;;;10.28;100.00;101929.31;1019358;29;20312;-96
2022/10/31 00:56:21;;;;;;;10.27;5.63;;;;;;;10.24;100.00;101924.53;1015443;29;20321;-95
2022/10/31 00:56:53;;;;;;;12.55;5.38;;;;;;;10.25;100.00;101931.53;1022258;29;20406;-96
2022/10/31 00:57:25;;;;;;;14.27;5.93;;;;;;;10.27;100.00;101929.50;1022088;29;20311;-95
2022/10/31 00:58:00;;;;;;;12.77;7.00;;;;;;;10.28;100.00;101936.47;1010601;29;20319;-95
2022/10/31 00:58:33;;;;;;;10.45;5.47;;;;;;;10.26;100.00;101926.00;1010847;29;20365;-96
2022/10/31 00:59:05;;;;;;;11.00;7.22;;;;;;;10.25;100.00;101932.34;1025643;28;20705;-95
2022/10/31 00:59:38;;;;;;;7.88;5.30;;;;;;;10.21;100.00;101929.22;1014353;29;20684;-95
2022/10/31 01:00:10;;;;;;;7.93;5.80;;;;;;;10.19;100.00;101928.56;1018965;29;20699;-96
2022/10/31 01:00:43;;;;;;;6.53;4.82;;;;;;;10.18;100.00;101932.25;1019218;29;20308;-96
2022/10/31 01:01:20;;;;;;;8.50;5.70;;;;;;;10.19;100.00;101933.88;1015688;29;20336;-94
2022/10/31 01:01:53;;;;;;;7.30;5.45;;;;;;;10.18;100.00;101929.56;1015218;29;20350;-96
2022/10/31 01:02:26;;;;;;;7.50;5.55;;;;;;;10.17;100.00;101927.94;1023156;29;20686;-95
2022/10/31 01:02:58;;;;;;;7.28;5.63;;;;;;;10.15;100.00;101937.94;1022677;29;20304;-95
2022/10/31 01:03:33;;;;;;;10.27;6.40;;;;;;;10.17;100.00;101932.44;1014695;28;20308;-95
2022/10/31 01:04:05;;;;;;;10.13;5.55;;;;;;;10.17;100.00;101935.09;1018558;29;20307;-96
2022/10/31 01:04:37;;;;;;;7.60;6.10;;;;;;;10.15;100.00;101937.94;1014928;29;20432;-96
2022/10/31 01:05:09;;;;;;;9.05;5.88;;;;;;;10.13;100.00;101936.44;1014079;29;20319;-95
2022/10/31 01:05:41;;;;;;;6.53;4.75;;;;;;;10.08;100.00;101941.50;1014765;29;20437;-96
2022/10/31 01:06:14;;;;;;;10.55;6.10;;;;;;;10.08;100.00;101937.00;1018894;29;20315;-96
2022/10/31 01:06:46;;;;;;;10.23;6.30;;;;;;;10.07;100.00;101935.34;1019077;29;20312;-95
2022/10/31 01:07:20;;;;;;;11.65;6.65;;;;;;;10.07;100.00;101934.53;1022676;28;20338;-96
2022/10/31 01:07:53;;;;;;;8.43;5.82;;;;;;;10.05;100.00;101932.06;1019187;29;20305;-95
2022/10/31 01:08:25;;;;;;;12.20;5.43;;;;;;;10.06;100.00;101931.06;1022921;29;20331;-95
2022/10/31 01:08:58;;;;;;;8.55;5.75;;;;;;;10.06;100.00;101939.03;1015291;29;20344;-95
2022/10/31 01:09:30;;;;;;;11.82;6.55;;;;;;;10.04;100.00;101933.06;1019357;29;20319;-96
2022/10/31 01:10:04;;;;;;;9.02;6.78;;;;;;;10.05;100.00;101926.75;1015670;29;20320;-96
2022/10/31 01:10:37;;;;;;;5.70;5.20;;;;;;;10.05;100.00;101937.38;1015157;29;20372;-95
2022/10/31 01:11:18;;;;;;;9.55;5.43;;;;;;;10.02;100.00;101940.41;1022150;28;20674;-95
2022/10/31 01:11:50;;;;;;;8.52;5.25;;;;;;;9.99;100.00;101937.31;1026908;29;20311;-95
2022/10/31 01:12:22;;;;;;;8.90;5.88;;;;;;;9.99;100.00;101932.81;1023672;29;20323;-95
2022/10/31 01:12:55;;;;;;;8.93;6.85;;;;;;;10.10;100.00;101939.47;1024315;29;20311;-95
2022/10/31 01:13:28;;;;;;;11.82;7.30;;;;;;;10.11;100.00;101939.28;1015282;29;20309;-95
2022/10/31 01:14:00;;;;;;;10.20;7.20;;;;;;;10.13;100.00;101934.59;1012101;29;20384;-95
2022/10/31 01:14:35;;;;;;;6.00;5.07;;;;;;;10.05;100.00;101937.38;1023405;29;20311;-95
2022/10/31 01:15:10;;;;;;;6.20;4.78;;;;;;;10.06;100.00;101938.22;1023225;28;20308;-95
2022/10/31 01:15:45;;;;;;;8.32;5.45;;;;;;;10.06;100.00;101932.88;1015567;29;20311;-96
2022/10/31 01:16:19;;;;;;;10.45;5.93;;;;;;;10.03;100.00;101936.75;1022362;29;20304;-96
2022/10/31 01:16:54;;;;;;;7.88;5.43;;;;;;;10.02;100.00;101932.44;1019070;29;20684;-95
2022/10/31 01:17:26;;;;;;;8.75;5.47;;;;;;;10.01;100.00;101925.47;1010976;29;20385;-95
2022/10/31 01:17:59;;;;;;;10.77;5.93;;;;;;;9.98;100.00;101931.16;1011298;29;20426;-95
2022/10/31 01:18:34;;;;;;;7.78;5.63;;;;;;;9.99;100.00;101931.97;1018286;29;20308;-95
2022/10/31 01:19:06;;;;;;;5.70;5.00;;;;;;;9.97;100.00;101934.84;1018693;29;20379;-96
2022/10/31 01:19:39;;;;;;;7.60;6.60;;;;;;;10.00;100.00;101931.81;1018610;29;20308;-96
2022/10/31 01:20:12;;;;;;;11.55;5.70;;;;;;;9.98;100.00;101936.47;1014888;29;20370;-95
2022/10/31 01:20:44;;;;;;;19.05;6.28;;;;;;;9.95;100.00;101936.84;1014827;29;20313;-96
2022/10/31 01:21:19;;;;;;;7.18;4.80;;;;;;;9.90;100.00;101937.41;1007019;29;20314;-95
2022/10/31 01:21:55;;;;;;;6.88;4.88;;;;;;;9.89;100.00;101941.09;1014755;29;20336;-96
2022/10/31 01:22:27;;;;;;;5.20;4.55;;;;;;;9.88;100.00;101935.94;1018130;29;20320;-95
2022/10/31 01:22:58;;;;;;;7.20;5.75;;;;;;;9.83;100.00;101943.63;1014549;29;20677;-95
2022/10/31 01:23:31;;;;;;;7.78;5.32;;;;;;;9.84;100.00;101940.78;1022668;29;20307;-95
2022/10/31 01:24:04;;;;;;;7.72;5.55;;;;;;;9.81;100.00;101941.16;1022310;29;20319;-95
2022/10/31 01:24:36;;;;;;;10.80;5.80;;;;;;;9.83;100.00;101938.31;1018443;29;20331;-95
2022/10/31 01:25:09;;;;;;;11.15;5.80;;;;;;;9.86;100.00;101932.63;1018090;29;20309;-96
2022/10/31 01:25:42;;;;;;;9.57;5.53;;;;;;;9.85;100.00;101930.97;1014366;29;20394;-95
2022/10/31 01:26:17;;;;;;;8.73;5.72;;;;;;;9.82;100.00;101931.34;1018171;29;20358;-95
2022/10/31 01:26:49;;;;;;;10.98;5.30;;;;;;;9.82;100.00;101936.66;1014628;29;20316;-94
2022/10/31 01:27:21;;;;;;;9.32;6.45;;;;;;;9.83;100.00;101940.97;1010284;29;20762;-95
2022/10/31 01:27:53;;;;;;;10.48;5.47;;;;;;;9.83;100.00;101938.31;1014438;29;20343;-95
2022/10/31 01:28:25;;;;;;;18.55;5.38;;;;;;;9.78;100.00;101932.72;1018636;29;20370;-95
2022/10/31 01:29:01;;;;;;;7.03;5.15;;;;;;;9.76;100.00;101927.59;1022156;29;20402;-95
2022/10/31 01:29:33;;;;;;;15.40;5.78;;;;;;;9.79;100.00;101923.72;1014780;29;20309;-95
2022/10/31 01:30:06;;;;;;;5.93;5.22;;;;;;;9.75;100.00;101933.09;1014236;29;20305;-95
2022/10/31 01:30:38;;;;;;;11.32;5.47;;;;;;;9.77;100.00;101933.75;1017968;29;20380;-95
2022/10/31 01:31:10;;;;;;;13.65;5.32;;;;;;;9.71;100.00;101935.31;1018409;29;20395;-96
2022/10/31 01:31:42;;;;;;;5.47;4.93;;;;;;;9.69;100.00;101931.19;1022444;29;20318;-95
2022/10/31 01:32:15;;;;;;;6.03;5.30;;;;;;;9.71;100.00;101929.16;1026593;29;20311;-96
2022/10/31 01:32:50;;;;;;;7.53;5.22;;;;;;;9.69;100.00;101925.84;1022376;29;20308;-96
2022/10/31 01:33:22;;;;;;;6.13;4.95;;;;;;;9.69;100.00;101931.19;1018715;29;20814;-95
2022/10/31 01:33:54;;;;;;;10.40;6.50;;;;;;;9.68;100.00;101932.19;1018862;29;20321;-96
2022/10/31 01:34:26;;;;;;;10.57;5.03;;;;;;;9.68;100.00;101934.84;1018872;29;20308;-96
2022/10/31 01:34:59;;;;;;;9.25;5.05;;;;;;;9.70;100.00;101928.34;1023226;29;20311;-95
2022/10/31 01:35:31;;;;;;;6.93;5.75;;;;;;;9.71;100.00;101929.97;1022644;29;20403;-96
2022/10/31 01:36:20;;;;;;;7.00;5.80;;;;;;;9.71;100.00;101934.47;1014599;29;20365;-96
2022/10/31 01:36:54;;;;;;;13.10;5.00;;;;;;;9.68;100.00;101934.84;1026454;28;20318;-95
2022/10/31 01:37:29;;;;;;;8.88;4.78;;;;;;;9.62;100.00;101935.59;1027090;28;20071;-95
2022/10/31 01:38:01;;;;;;;6.20;5.05;;;;;;;9.57;100.00;101934.28;1023029;29;20334;-96
2022/10/31 01:38:33;;;;;;;8.23;5.80;;;;;;;9.63;100.00;101937.25;1025943;29;20315;-95
2022/10/31 01:39:15;;;;;;;8.50;5.65;;;;;;;9.65;100.00;101935.22;1025881;28;20443;-96
2022/10/31 01:39:48;;;;;;;12.27;6.88;;;;;;;9.66;100.00;101935.03;1025680;29;20389;-95
2022/10/31 01:40:20;;;;;;;6.55;5.80;;;;;;;9.67;100.00;101938.53;1021443;29;20315;-94
2022/10/31 01:40:52;;;;;;;10.63;6.03;;;;;;;9.70;100.00;101935.50;1017491;29;20383;-95
2022/10/31 01:41:27;;;;;;;9.10;5.57;;;;;;;9.71;100.00;101934.47;1021820;29;20809;-95
2022/10/31 01:41:59;;;;;;;8.43;5.45;;;;;;;9.70;100.00;101943.47;1017376;29;20316;-95
2022/10/31 01:42:32;;;;;;;10.13;6.18;;;;;;;9.69;100.00;101936.50;1022247;29;20374;-95
2022/10/31 01:43:04;;;;;;;9.45;6.28;;;;;;;9.64;100.00;101928.25;1026311;29;20330;-96
2022/10/31 01:44:14;;;;;;;7.82;6.93;;;;;;;9.64;100.00;101934.38;1018563;29;20304;-96
2022/10/31 01:44:54;;;;;;;6.82;5.07;;;;;;;9.67;100.00;101934.03;1027792;28;20643;-96
2022/10/31 01:45:26;;;;;;;11.18;4.88;;;;;;;9.69;100.00;101941.81;1021926;29;20318;-96
2022/10/31 01:45:58;;;;;;;6.97;5.32;;;;;;;9.68;100.00;101934.84;1025644;28;20390;-95
2022/10/31 01:46:36;;;;;;;21.35;4.40;;;;;;;9.61;100.00;101934.75;1021031;28;20307;-95
2022/10/31 01:47:17;;;;;;;5.40;4.13;;;;;;;9.60;100.00;101928.63;1016917;29;20379;-95
2022/10/31 01:47:49;;;;;;;;;;;;;;;9.53;100.00;101933.00;1021390;29;20394;-96
2022/10/31 01:51:43;;;;;;;6.18;4.07;;;;;;;9.52;100.00;101939.31;1029699;28;20289;-96
2022/10/31 01:52:23;;;;;;;4.03;3.63;;;;;;;9.52;100.00;101939.31;1025402;29;20793;-95
2022/10/31 01:52:55;;;;;;;19.23;4.13;;;;;;;9.55;100.00;101941.63;1029421;28;20310;-95
2022/10/31 01:53:27;;;;;;;12.20;4.80;;;;;;;9.53;100.00;101942.81;1021388;29;20315;-95
2022/10/31 01:54:03;;;;;;;9.80;3.83;;;;;;;9.53;100.00;101948.13;1013569;29;20384;-95
2022/10/31 01:54:40;;;;;;;8.77;3.97;;;;;;;9.50;100.00;101937.84;1017306;29;20319;-95
2022/10/31 01:55:30;;;;;;;7.10;4.05;;;;;;;9.50;100.00;101936.03;1021267;29;20307;-95
2022/10/31 01:56:02;;;;;;;6.85;3.40;;;;;;;9.48;100.00;101935.38;1021337;29;20323;-96
2022/10/31 01:56:37;;;;;;;3.97;3.28;;;;;;;9.51;100.00;101939.50;1017477;29;20308;-95
2022/10/31 01:57:12;;;;;;;5.90;3.40;;;;;;;9.51;100.00;101940.34;1017276;28;20364;-95
2022/10/31 01:57:47;;;;;;;5.20;3.83;;;;;;;9.50;100.00;101951.97;1029193;28;20310;-96
2022/10/31 02:01:44;;;;;;;4.65;3.58;;;;;;;9.41;100.00;101949.59;1029170;28;20309;-96
2022/10/31 02:02:17;;;;;;;4.45;3.88;;;;;;;9.41;100.00;101950.41;1024731;29;20302;-95
2022/10/31 02:02:50;;;;;;;6.00;3.30;;;;;;;9.41;100.00;101950.41;1017364;29;20309;-96
2022/10/31 02:03:23;;;;;;;5.07;4.57;;;;;;;9.40;100.00;101940.78;1021293;29;20324;-96
2022/10/31 02:03:55;;;;;;;7.03;6.10;;;;;;;9.40;100.00;101948.75;1029281;28;20393;-95
2022/10/31 02:04:29;;;;;;;12.60;5.50;;;;;;;9.42;100.00;101952.06;1017287;29;20340;-96
2022/10/31 02:05:05;;;;;;;8.70;5.53;;;;;;;9.41;100.00;101945.09;1017194;29;20790;-95
2022/10/31 02:05:37;;;;;;;9.57;6.68;;;;;;;9.42;100.00;101946.75;1025250;29;20306;-96
2022/10/31 02:06:27;;;;;;;9.48;6.88;;;;;;;9.44;100.00;101938.59;1021556;29;20323;-96
2022/10/31 02:07:05;;;;;;;9.07;6.57;;;;;;;9.48;100.00;101940.69;1017899;29;20320;-96
2022/10/31 02:07:41;;;;;;;6.15;5.55;;;;;;;9.47;100.00;101938.22;1017655;29;20316;-95
2022/10/31 02:08:21;;;;;;;6.93;5.35;;;;;;;9.44;100.00;101934.09;1013412;29;20312;-96
2022/10/31 02:08:55;;;;;;;9.88;5.85;;;;;;;9.45;100.00;101938.41;1021227;29;20374;-96
2022/10/31 02:09:29;;;;;;;14.52;6.00;;;;;;;9.46;100.00;101936.56;1025260;29;20207;-94
2022/10/31 02:10:02;;;;;;;9.00;6.55;;;;;;;9.43;100.00;101932.44;1025041;29;20401;-95
2022/10/31 02:10:36;;;;;;;7.68;5.78;;;;;;;9.42;100.00;101925.47;1025249;29;20318;-96
2022/10/31 02:11:09;;;;;;;11.13;6.75;;;;;;;9.46;100.00;101936.56;1025280;28;20319;-95
2022/10/31 02:11:42;;;;;;;12.63;7.50;;;;;;;9.42;100.00;101930.78;1018062;29;20304;-95
2022/10/31 02:12:18;;;;;;;9.88;6.07;;;;;;;9.40;100.00;101927.50;1018720;29;20366;-96
2022/10/31 02:12:53;;;;;;;9.80;6.55;;;;;;;9.41;100.00;101925.66;1022283;29;20311;-96
2022/10/31 02:13:25;;;;;;;8.65;6.28;;;;;;;9.43;100.00;101924.47;1017746;29;20352;-95
2022/10/31 02:13:59;;;;;;;9.02;6.30;;;;;;;9.45;100.00;101927.78;1025783;28;20380;-95
2022/10/31 02:14:31;;;;;;;7.95;5.78;;;;;;;9.45;100.00;101933.09;1025866;29;20791;-96
2022/10/31 02:15:04;;;;;;;16.27;6.97;;;;;;;9.42;100.00;101928.13;1021515;29;20312;-95
2022/10/31 02:15:37;;;;;;;7.55;6.25;;;;;;;9.38;100.00;101929.50;1025199;28;20413;-96
2022/10/31 02:16:09;;;;;;;10.35;6.25;;;;;;;9.34;100.00;101928.22;1021379;29;20654;-95
2022/10/31 02:16:42;;;;;;;11.35;6.32;;;;;;;9.31;100.00;101925.91;1021380;29;20315;-96
2022/10/31 02:18:14;;;;;;;7.55;6.53;;;;;;;9.23;100.00;101920.66;1022188;28;20307;-89
2022/10/31 02:18:47;;;;;;;8.38;7.28;;;;;;;9.18;100.00;101915.91;1023105;28;20311;-89
2022/10/31 02:19:44;;;;;;;9.18;7.10;;;;;;;9.16;100.00;101925.88;1015640;29;20316;-89
2022/10/31 02:20:22;;;;;;;10.90;5.95;;;;;;;9.15;100.00;101915.44;1015670;29;20306;-89
2022/10/31 02:21:06;;;;;;;9.43;7.25;;;;;;;9.19;100.00;101919.38;1019810;29;20389;-89
2022/10/31 02:21:49;;;;;;;9.93;7.10;;;;;;;9.20;100.00;101913.06;1015255;29;20307;-89
2022/10/31 02:22:30;;;;;;;16.65;7.93;;;;;;;9.15;100.00;101921.59;1007103;29;20313;-89
2022/10/31 02:23:19;;;;;;;6.88;5.75;;;;;;;9.16;100.00;101915.25;1007511;29;20309;-89
2022/10/31 02:24:09;;;;;;;9.60;6.80;;;;;;;9.15;100.00;101923.41;1007917;29;20052;-89
2022/10/31 02:24:46;;;;;;;8.93;7.68;;;;;;;9.12;100.00;101923.78;1020502;29;20346;-89
2022/10/31 02:25:46;;;;;;;10.85;7.38;;;;;;;9.15;100.00;101924.25;1021318;29;20307;-89
2022/10/31 02:26:58;;;;;;;10.90;7.13;;;;;;;9.16;100.00;101925.06;1023055;28;20338;-89
2022/10/31 02:27:47;;;;;;;10.05;6.95;;;;;;;9.13;100.00;101925.44;1026749;28;20333;-89
2022/10/31 02:28:39;;;;;;;24.35;7.13;;;;;;;9.06;100.00;101919.19;1026770;28;20685;-89
2022/10/31 02:29:19;;;;;;;8.50;6.65;;;;;;;9.11;100.00;101927.44;1022390;29;20844;-89
2022/10/31 02:30:05;;;;;;;11.88;6.53;;;;;;;9.07;100.00;101928.81;1022741;29;20302;-90
2022/10/31 02:30:45;;;;;;;5.95;5.25;;;;;;;9.04;100.00;101921.16;1023311;29;20051;-89
2022/10/31 02:31:17;;;;;;;8.73;5.93;;;;;;;9.11;100.00;101932.75;1027314;28;20305;-89
2022/10/31 02:32:09;;;;;;;7.82;5.22;;;;;;;9.09;100.00;101924.97;1027917;28;20082;-89
2022/10/31 02:32:53;;;;;;;7.45;5.30;;;;;;;9.11;100.00;101935.41;1018910;29;20331;-89
2022/10/31 02:33:35;;;;;;;12.68;6.75;;;;;;;9.15;100.00;101939.38;1009570;29;20306;-88
2022/10/31 02:34:19;;;;;;;10.80;5.57;;;;;;;9.11;100.00;101927.44;1007844;29;20059;-89
2022/10/31 02:35:11;;;;;;;6.43;4.80;;;;;;;9.11;100.00;101943.38;1011301;29;20369;-89
2022/10/31 02:36:07;;;;;;;5.45;4.93;;;;;;;9.11;100.00;101938.06;1012480;29;20323;-90
2022/10/31 02:36:48;;;;;;;6.75;6.03;;;;;;;9.08;100.00;101939.25;1024020;28;20624;-89
2022/10/31 02:37:37;;;;;;;9.88;6.50;;;;;;;9.06;100.00;101935.13;1025186;28;20311;-89
2022/10/31 02:38:30;;;;;;;10.77;5.95;;;;;;;9.08;100.00;101941.09;1024255;28;20781;-89
2022/10/31 02:39:21;;;;;;;8.57;5.72;;;;;;;9.08;100.00;101935.78;1023495;28;20309;-89
2022/10/31 02:39:55;;;;;;;8.35;5.90;;;;;;;9.07;100.00;101934.13;1028638;28;20310;-89
2022/10/31 02:40:56;;;;;;;5.57;5.00;;;;;;;9.12;100.00;101934.41;1025568;28;20389;-89
2022/10/31 02:41:54;;;;;;;6.18;5.47;;;;;;;9.06;100.00;101935.97;1019346;29;20398;-89
2022/10/31 02:42:33;;;;;;;7.28;6.57;;;;;;;9.09;100.00;101929.44;1025778;28;20781;-89
2022/10/31 02:43:12;;;;;;;9.20;7.03;;;;;;;9.10;100.00;101931.09;1021487;29;20319;-90
2022/10/31 02:44:02;;;;;;;11.32;5.90;;;;;;;9.09;100.00;101930.28;1015689;29;20316;-89
2022/10/31 02:45:00;;;;;;;8.27;5.78;;;;;;;9.12;100.00;101929.91;1015428;29;20337;-89
2022/10/31 02:45:47;;;;;;;10.00;5.93;;;;;;;9.13;100.00;101928.09;1016730;29;20312;-89
2022/10/31 02:46:26;;;;;;;7.65;5.57;;;;;;;9.17;100.00;101926.72;1018804;29;20803;-89
2022/10/31 02:47:01;;;;;;;14.55;6.88;;;;;;;9.21;100.00;101928.81;1018660;29;20516;-89
2022/10/31 02:47:41;;;;;;;7.43;5.82;;;;;;;9.18;100.00;101931.03;1019348;29;20514;-90
2022/10/31 02:48:19;;;;;;;51.83;6.60;;;;;;;9.20;100.00;101927.19;1019083;29;20315;-89
2022/10/31 02:48:53;;;;;;;17.98;5.00;;;;;;;9.18;100.00;101929.19;1026110;28;20346;-89
2022/10/31 02:49:46;;;;;;;7.20;5.68;;;;;;;9.18;100.00;101925.72;1017718;29;20320;-89
2022/10/31 02:50:27;;;;;;;6.13;4.72;;;;;;;9.15;100.00;101928.72;1019188;29;20639;-89
2022/10/31 02:51:01;;;;;;;18.95;5.13;;;;;;;9.16;100.00;101930.38;1023576;29;20298;-89
2022/10/31 02:51:33;;;;;;;6.20;5.30;;;;;;;9.16;100.00;101931.22;1022247;29;20857;-95
2022/10/31 02:56:25;;;;;;;5.35;4.57;;;;;;;9.04;100.00;101934.47;1034395;28;20281;-95
2022/10/31 02:57:04;;;;;;;6.35;4.90;;;;;;;9.02;100.00;101936.47;1026874;29;20406;-95
2022/10/31 02:57:36;;;;;;;5.13;4.50;;;;;;;9.02;100.00;101933.81;1022607;29;20342;-95
2022/10/31 02:58:11;;;;;;;6.20;5.35;;;;;;;9.01;100.00;101938.31;1017215;29;20315;-95
2022/10/31 03:03:19;;;;;;;12.10;5.88;;;;;;;8.96;100.00;101936.19;1027998;29;20283;-95
2022/10/31 03:04:13;;;;;;;7.35;5.97;;;;;;;8.98;100.00;101939.50;1026226;29;20801;-95
2022/10/31 03:05:17;;;;;;;8.95;5.85;;;;;;;8.99;100.00;101941.13;1030079;28;20388;-95
2022/10/31 03:06:00;;;;;;;7.93;7.13;;;;;;;9.01;100.00;101932.16;1013786;29;20395;-95
2022/10/31 03:06:35;;;;;;;7.93;6.10;;;;;;;9.04;100.00;101934.47;1019734;29;20309;-96
2022/10/31 03:07:24;;;;;;;10.93;7.35;;;;;;;9.02;100.00;101939.13;1021467;29;20299;-89
2022/10/31 03:08:23;;;;;;;9.27;6.10;;;;;;;9.03;100.00;101935.47;1021456;29;20435;-89
2022/10/31 03:09:19;;;;;;;8.00;6.47;;;;;;;8.99;100.00;101935.81;1016319;29;20447;-89